Time;durP1;ratioP1;P1;durP2;ratioP2;P2;SDS_P1;SDS_P2;PMS_P1;PMS_P2;Temp;Humidity;BMP_temperature;BMP_pressure;BME280_temperature;BME280_humidity;BME280_pressure;Samples;Min_cycle;Max_cycle;Signal;HPM_P1;HPM_P2
2021/03/26 00:00:16;;;;;;;5.40;4.38;;;;;;;;;;5129831;27;20051;-66
2021/03/26 00:02:43;;;;;;;5.97;5.40;;;;;;;;;;5129990;27;20019;-67
2021/03/26 00:05:11;;;;;;;9.10;5.70;;;;;;;;;;5130133;27;20023;-67
2021/03/26 00:07:37;;;;;;;5.30;4.82;;;;;;;;;;5130957;27;20027;-67
2021/03/26 00:10:07;;;;;;;7.05;6.35;;;;;;;;;;5130290;27;20023;-66
2021/03/26 00:12:33;;;;;;;4.25;3.85;;;;;;;;;;5130159;27;20155;-66
2021/03/26 00:14:59;;;;;;;4.75;4.35;;;;;;;;;;5130118;27;20037;-66
2021/03/26 00:17:25;;;;;;;6.15;5.57;;;;;;;;;;5131041;27;20394;-66
2021/03/26 00:19:51;;;;;;;4.35;3.95;;;;;;;;;;5130749;27;20050;-66
2021/03/26 00:22:17;;;;;;;5.05;4.55;;;;;;;;;;5129963;27;20065;-66
2021/03/26 00:24:43;;;;;;;5.57;4.85;;;;;;;;;;5130578;28;20019;-66
2021/03/26 00:27:09;;;;;;;6.68;5.75;;;;;;;;;;5130040;28;20027;-66
2021/03/26 00:29:35;;;;;;;4.72;4.40;;;;;;;;;;5130632;28;20466;-66
2021/03/26 00:32:02;;;;;;;5.85;5.22;;;;;;;;;;5129823;28;20389;-66
2021/03/26 00:34:28;;;;;;;4.22;3.83;;;;;;;;;;5130535;28;20019;-66
2021/03/26 00:36:55;;;;;;;4.47;4.07;;;;;;;;;;5130585;28;20534;-66
2021/03/26 00:39:21;;;;;;;6.55;4.47;;;;;;;;;;5130298;28;20037;-66
2021/03/26 00:41:47;;;;;;;4.35;3.97;;;;;;;;;;5130302;28;20492;-67
2021/03/26 00:44:13;;;;;;;4.90;4.47;;;;;;;;;;5114133;28;20537;-66
2021/03/26 00:46:40;;;;;;;4.20;3.90;;;;;;;;;;5109827;28;20028;-66
2021/03/26 00:49:06;;;;;;;5.22;4.72;;;;;;;;;;5109276;28;20089;-66
2021/03/26 00:51:32;;;;;;;5.35;4.60;;;;;;;;;;5109349;28;20053;-66
2021/03/26 00:53:59;;;;;;;6.50;5.45;;;;;;;;;;5109083;28;20031;-66
2021/03/26 00:56:25;;;;;;;5.18;4.68;;;;;;;;;;5109801;28;20444;-66
2021/03/26 00:58:51;;;;;;;6.30;4.93;;;;;;;;;;5112893;27;20044;-67
2021/03/26 01:01:17;;;;;;;4.50;3.97;;;;;;;;;;5129177;28;20225;-66
2021/03/26 01:03:43;;;;;;;6.07;5.07;;;;;;;;;;5130191;28;20121;-67
2021/03/26 01:06:10;;;;;;;4.05;3.75;;;;;;;;;;5129867;28;20031;-66
2021/03/26 01:08:36;;;;;;;4.00;3.60;;;;;;;;;;5130415;28;20023;-66
2021/03/26 01:11:11;;;;;;;5.25;4.55;;;;;;;;;;5128994;28;20374;-66
2021/03/26 01:13:37;;;;;;;4.53;4.00;;;;;;;;;;5132874;27;20081;-67
2021/03/26 01:16:04;;;;;;;4.55;4.15;;;;;;;;;;5119180;27;20027;-66
2021/03/26 01:18:32;;;;;;;4.97;4.47;;;;;;;;;;5113439;28;20500;-66
2021/03/26 01:20:59;;;;;;;6.43;5.18;;;;;;;;;;5112852;28;20374;-66
2021/03/26 01:23:27;;;;;;;4.90;4.40;;;;;;;;;;5112955;28;20036;-67
2021/03/26 01:25:53;;;;;;;4.43;4.03;;;;;;;;;;5112989;28;20027;-66
2021/03/26 01:28:21;;;;;;;4.25;3.85;;;;;;;;;;5112333;28;20030;-66
2021/03/26 01:30:48;;;;;;;4.07;3.67;;;;;;;;;;5112750;28;20077;-67
2021/03/26 01:33:14;;;;;;;5.18;4.63;;;;;;;;;;5112577;28;20161;-66
2021/03/26 01:35:41;;;;;;;4.40;4.00;;;;;;;;;;5113099;28;20031;-66
2021/03/26 01:38:07;;;;;;;4.40;4.05;;;;;;;;;;5112640;28;20028;-66
2021/03/26 01:40:39;;;;;;;5.43;4.15;;;;;;;;;;5112941;28;20023;-66
2021/03/26 01:43:07;;;;;;;4.78;4.25;;;;;;;;;;5112106;28;20031;-66
2021/03/26 01:45:33;;;;;;;4.72;4.22;;;;;;;;;;5113073;28;20032;-66
2021/03/26 01:47:59;;;;;;;4.45;4.05;;;;;;;;;;5129169;27;20023;-66
2021/03/26 01:50:28;;;;;;;9.05;4.75;;;;;;;;;;5133306;27;20506;-66
2021/03/26 01:52:54;;;;;;;3.95;3.60;;;;;;;;;;5132992;27;20432;-66
2021/03/26 01:55:27;;;;;;;4.03;3.72;;;;;;;;;;5133168;27;20338;-66
2021/03/26 01:57:53;;;;;;;6.72;5.05;;;;;;;;;;5133080;27;20019;-66
2021/03/26 02:00:42;;;;;;;3.85;3.45;;;;;;;;;;5132390;27;20458;-66
2021/03/26 02:03:14;;;;;;;4.88;4.43;;;;;;;;;;5119204;27;20035;-66
2021/03/26 02:05:41;;;;;;;5.60;4.13;;;;;;;;;;5133240;27;20027;-67
2021/03/26 02:08:07;;;;;;;4.45;4.03;;;;;;;;;;5132515;27;20401;-66
2021/03/26 02:10:33;;;;;;;4.28;3.88;;;;;;;;;;5132837;27;20083;-67
2021/03/26 02:13:04;;;;;;;7.05;4.03;;;;;;;;;;5132537;27;20042;-66
2021/03/26 02:15:41;;;;;;;4.32;3.92;;;;;;;;;;5133238;27;20031;-66
2021/03/26 02:18:08;;;;;;;3.83;3.53;;;;;;;;;;5132613;27;20030;-66
2021/03/26 02:20:34;;;;;;;4.88;4.38;;;;;;;;;;5133067;27;20163;-66
2021/03/26 02:23:06;;;;;;;4.10;3.70;;;;;;;;;;5132466;27;20445;-66
2021/03/26 02:25:32;;;;;;;4.35;3.95;;;;;;;;;;5132234;27;20027;-67
2021/03/26 02:27:58;;;;;;;4.55;3.30;;;;;;;;;;5132040;27;20474;-66
2021/03/26 02:30:29;;;;;;;4.32;3.92;;;;;;;;;;5132576;27;20031;-67
2021/03/26 02:32:56;;;;;;;4.40;4.00;;;;;;;;;;5132195;27;20035;-68
2021/03/26 02:35:22;;;;;;;4.93;4.53;;;;;;;;;;5132358;27;20027;-66
2021/03/26 02:38:08;;;;;;;4.22;3.83;;;;;;;;;;5132857;27;20028;-66
2021/03/26 02:40:37;;;;;;;4.40;4.00;;;;;;;;;;5132259;27;20069;-66
2021/03/26 02:43:24;;;;;;;3.97;3.65;;;;;;;;;;5125513;27;20417;-66
2021/03/26 02:45:55;;;;;;;4.50;4.10;;;;;;;;;;5060773;28;20443;-66
2021/03/26 02:48:26;;;;;;;4.53;3.30;;;;;;;;;;5111716;28;20034;-66
2021/03/26 02:50:59;;;;;;;4.13;3.72;;;;;;;;;;5111443;28;20401;-66
2021/03/26 02:53:38;;;;;;;3.83;3.53;;;;;;;;;;5111757;28;20543;-66
2021/03/26 02:56:12;;;;;;;5.97;4.95;;;;;;;;;;5111135;28;20347;-66
2021/03/26 02:58:40;;;;;;;5.53;3.90;;;;;;;;;;5112882;27;20042;-66
2021/03/26 03:01:15;;;;;;;3.78;3.47;;;;;;;;;;5130928;27;20035;-66
2021/03/26 03:03:42;;;;;;;4.00;3.70;;;;;;;;;;5131775;27;20027;-66
2021/03/26 03:06:12;;;;;;;4.68;3.90;;;;;;;;;;5131670;27;20071;-66
2021/03/26 03:08:39;;;;;;;4.88;4.15;;;;;;;;;;5132032;27;20035;-66
2021/03/26 03:11:21;;;;;;;3.55;3.20;;;;;;;;;;5130890;27;20080;-66
2021/03/26 03:13:52;;;;;;;4.25;3.83;;;;;;;;;;5132124;27;20035;-66
2021/03/26 03:16:53;;;;;;;4.15;3.85;;;;;;;;;;5124674;27;20054;-66
2021/03/26 03:19:19;;;;;;;5.32;4.82;;;;;;;;;;5047998;28;20132;-66
2021/03/26 03:21:49;;;;;;;3.10;2.80;;;;;;;;;;5115019;27;20066;-67
2021/03/26 03:24:19;;;;;;;3.92;3.47;;;;;;;;;;5131032;27;20508;-66
2021/03/26 03:26:51;;;;;;;4.28;3.95;;;;;;;;;;5131652;27;20069;-66
2021/03/26 03:29:36;;;;;;;5.95;4.50;;;;;;;;;;5130757;27;20035;-66
2021/03/26 03:32:14;;;;;;;4.18;3.78;;;;;;;;;;5130824;27;20035;-66
2021/03/26 03:34:42;;;;;;;9.05;4.13;;;;;;;;;;5131553;27;20401;-66
2021/03/26 03:37:18;;;;;;;3.95;3.55;;;;;;;;;;5130646;27;20027;-66
2021/03/26 03:39:53;;;;;;;4.32;3.92;;;;;;;;;;5131577;27;20023;-66
2021/03/26 03:42:19;;;;;;;5.00;4.57;;;;;;;;;;5130682;27;20400;-66
2021/03/26 03:44:51;;;;;;;3.50;3.20;;;;;;;;;;5131253;27;20023;-66
2021/03/26 03:47:25;;;;;;;3.72;3.38;;;;;;;;;;5128824;27;20027;-66
2021/03/26 03:49:55;;;;;;;4.25;3.85;;;;;;;;;;5131305;27;20075;-66
2021/03/26 03:52:27;;;;;;;4.53;3.78;;;;;;;;;;5130377;27;20039;-66
2021/03/26 03:55:08;;;;;;;5.95;3.65;;;;;;;;;;5131041;27;20159;-67
2021/03/26 03:57:44;;;;;;;3.80;3.50;;;;;;;;;;5130750;27;20069;-67
2021/03/26 04:00:14;;;;;;;3.65;3.35;;;;;;;;;;5129996;27;20536;-67
2021/03/26 04:02:44;;;;;;;3.88;3.10;;;;;;;;;;5130532;27;20429;-67
2021/03/26 04:05:22;;;;;;;4.35;3.95;;;;;;;;;;5130313;27;20110;-67
2021/03/26 04:07:57;;;;;;;3.80;3.50;;;;;;;;;;5131121;27;20034;-67
2021/03/26 04:10:24;;;;;;;3.95;3.65;;;;;;;;;;5130751;27;20444;-67
2021/03/26 04:12:54;;;;;;;3.72;3.42;;;;;;;;;;5130498;27;20047;-67
2021/03/26 04:15:52;;;;;;;4.38;3.97;;;;;;;;;;5130274;27;20663;-67
2021/03/26 04:18:21;;;;;;;4.57;3.85;;;;;;;;;;5074122;27;20039;-67
2021/03/26 04:20:56;;;;;;;4.78;4.28;;;;;;;;;;5131008;27;20208;-67
2021/03/26 04:23:33;;;;;;;4.30;3.72;;;;;;;;;;5130484;27;20393;-67
2021/03/26 04:26:07;;;;;;;5.72;3.50;;;;;;;;;;5130320;27;20035;-67
2021/03/26 04:28:35;;;;;;;4.35;3.80;;;;;;;;;;5130506;27;20508;-67
2021/03/26 04:31:04;;;;;;;4.90;4.50;;;;;;;;;;5129744;28;20481;-67
2021/03/26 04:33:30;;;;;;;5.78;4.00;;;;;;;;;;5130827;28;20084;-67
2021/03/26 04:35:57;;;;;;;4.85;3.63;;;;;;;;;;5130404;28;20034;-67
2021/03/26 04:38:23;;;;;;;3.75;3.45;;;;;;;;;;5130250;28;20027;-67
2021/03/26 04:40:51;;;;;;;5.35;3.92;;;;;;;;;;5130292;28;20031;-67
2021/03/26 04:43:36;;;;;;;4.95;4.50;;;;;;;;;;5122161;28;20160;-67
2021/03/26 04:46:31;;;;;;;5.32;4.38;;;;;;;;;;5109585;28;20172;-67
2021/03/26 04:49:12;;;;;;;5.70;4.30;;;;;;;;;;5091156;28;20040;-66
2021/03/26 04:51:47;;;;;;;4.57;4.28;;;;;;;;;;5113633;28;20043;-67
2021/03/26 04:54:17;;;;;;;3.70;3.40;;;;;;;;;;5113119;28;20027;-67
2021/03/26 04:56:46;;;;;;;4.70;4.25;;;;;;;;;;5113890;28;20085;-67
2021/03/26 04:59:13;;;;;;;5.68;5.18;;;;;;;;;;5119425;27;20147;-67
2021/03/26 05:01:42;;;;;;;4.68;4.28;;;;;;;;;;5134177;27;20378;-67
2021/03/26 05:04:16;;;;;;;4.40;3.65;;;;;;;;;;5133630;27;20027;-67
2021/03/26 05:06:49;;;;;;;4.97;4.53;;;;;;;;;;5134173;27;20031;-67
2021/03/26 05:09:21;;;;;;;4.07;3.70;;;;;;;;;;5133795;27;20849;-67
2021/03/26 05:11:49;;;;;;;3.60;3.30;;;;;;;;;;5134124;27;20031;-67
2021/03/26 05:14:18;;;;;;;3.78;3.25;;;;;;;;;;5133530;27;20063;-67
2021/03/26 05:16:49;;;;;;;3.95;3.58;;;;;;;;;;5114926;27;20489;-67
2021/03/26 05:19:32;;;;;;;4.30;3.90;;;;;;;;;;5112774;28;20224;-67
2021/03/26 05:22:08;;;;;;;3.58;3.28;;;;;;;;;;5112784;28;20015;-67
2021/03/26 05:24:36;;;;;;;3.85;3.50;;;;;;;;;;5113736;28;20048;-67
2021/03/26 05:27:05;;;;;;;3.55;3.03;;;;;;;;;;5112594;28;20332;-67
2021/03/26 05:29:31;;;;;;;3.78;3.42;;;;;;;;;;5113597;28;20072;-67
2021/03/26 05:32:14;;;;;;;3.90;3.58;;;;;;;;;;5112444;28;20036;-66
2021/03/26 05:34:50;;;;;;;3.83;3.05;;;;;;;;;;5094955;28;20065;-67
2021/03/26 05:37:28;;;;;;;3.55;3.25;;;;;;;;;;5112724;28;20062;-67
2021/03/26 05:40:00;;;;;;;3.90;3.45;;;;;;;;;;5112903;28;20030;-67
2021/03/26 05:42:40;;;;;;;4.40;4.00;;;;;;;;;;5112852;28;20024;-67
2021/03/26 05:45:10;;;;;;;3.83;3.53;;;;;;;;;;5112570;28;20030;-67
2021/03/26 05:47:36;;;;;;;4.88;4.00;;;;;;;;;;5126608;27;20061;-67
2021/03/26 05:50:14;;;;;;;3.65;3.35;;;;;;;;;;5132804;27;20132;-67
2021/03/26 05:52:47;;;;;;;4.05;3.65;;;;;;;;;;5133412;27;20039;-67
2021/03/26 05:55:33;;;;;;;3.47;3.05;;;;;;;;;;5133039;27;20119;-67
2021/03/26 05:58:18;;;;;;;4.50;3.55;;;;;;;;;;5132429;27;20448;-67
2021/03/26 06:01:02;;;;;;;3.58;3.28;;;;;;;;;;5131657;27;20039;-67
2021/03/26 06:03:50;;;;;;;3.70;3.22;;;;;;;;;;5132771;27;20027;-67
2021/03/26 06:06:16;;;;;;;4.55;4.15;;;;;;;;;;5132493;27;20146;-67
2021/03/26 06:08:43;;;;;;;3.13;2.92;;;;;;;;;;5132673;27;20441;-67
2021/03/26 06:11:29;;;;;;;3.65;3.22;;;;;;;;;;5132074;27;20023;-67
2021/03/26 06:14:07;;;;;;;3.88;3.58;;;;;;;;;;5115455;27;20485;-66
2021/03/26 06:16:52;;;;;;;3.28;2.97;;;;;;;;;;5133241;27;20023;-67
2021/03/26 06:19:24;;;;;;;3.78;3.42;;;;;;;;;;5132118;27;20034;-67
2021/03/26 06:21:56;;;;;;;3.90;3.40;;;;;;;;;;5132845;27;20027;-67
2021/03/26 06:24:40;;;;;;;4.68;3.40;;;;;;;;;;5132621;27;20122;-67
2021/03/26 06:27:25;;;;;;;4.30;3.80;;;;;;;;;;5131894;27;20027;-67
2021/03/26 06:30:11;;;;;;;3.35;2.75;;;;;;;;;;5114362;27;20499;-67
2021/03/26 06:32:50;;;;;;;3.40;3.10;;;;;;;;;;5132456;27;20389;-67
2021/03/26 06:35:22;;;;;;;4.53;3.50;;;;;;;;;;5131518;27;20481;-67
2021/03/26 06:38:06;;;;;;;3.03;2.78;;;;;;;;;;5133062;27;20394;-67
2021/03/26 06:40:32;;;;;;;4.18;3.78;;;;;;;;;;5132365;27;20441;-67
2021/03/26 06:43:22;;;;;;;4.47;4.07;;;;;;;;;;5126296;27;20374;-67
2021/03/26 06:45:56;;;;;;;5.50;3.47;;;;;;;;;;5112074;28;20393;-67
2021/03/26 06:48:26;;;;;;;4.97;4.50;;;;;;;;;;5111539;28;20032;-67
2021/03/26 06:51:10;;;;;;;5.63;3.25;;;;;;;;;;5109314;28;20118;-67
2021/03/26 06:53:36;;;;;;;;;;;;;;;;;;5111279;28;20035;-67
2021/03/26 06:56:20;;;;;;;6.82;3.67;;;;;;;;;;5101558;28;19903;-67
2021/03/26 06:59:21;;;;;;;3.75;3.35;;;;;;;;;;5103168;27;20055;-67
2021/03/26 07:02:07;;;;;;;4.63;3.85;;;;;;;;;;5024298;28;20034;-67
2021/03/26 07:04:43;;;;;;;4.18;3.53;;;;;;;;;;5112601;27;20040;-67
2021/03/26 07:07:27;;;;;;;5.00;3.97;;;;;;;;;;5120629;27;20042;-67
2021/03/26 07:09:53;;;;;;;5.43;3.67;;;;;;;;;;5093546;28;20500;-67
2021/03/26 07:12:19;;;;;;;4.93;4.53;;;;;;;;;;5109807;28;20462;-67
2021/03/26 07:14:56;;;;;;;4.38;3.83;;;;;;;;;;5110329;28;20046;-67
2021/03/26 07:17:28;;;;;;;4.22;3.83;;;;;;;;;;5101657;27;20176;-67
2021/03/26 07:20:13;;;;;;;4.57;3.75;;;;;;;;;;5109206;27;20099;-67
2021/03/26 07:22:42;;;;;;;8.10;4.38;;;;;;;;;;5101695;28;20035;-67
2021/03/26 07:25:14;;;;;;;4.70;4.22;;;;;;;;;;5115467;27;20036;-67
2021/03/26 07:27:58;;;;;;;4.82;4.32;;;;;;;;;;5110639;27;20118;-67
2021/03/26 07:30:42;;;;;;;6.82;4.97;;;;;;;;;;5097395;27;20031;-67
2021/03/26 07:33:11;;;;;;;5.10;4.60;;;;;;;;;;5112797;27;20081;-65
2021/03/26 07:35:44;;;;;;;5.15;4.38;;;;;;;;;;5091875;27;20439;-67
2021/03/26 07:38:15;;;;;;;9.80;5.50;;;;;;;;;;5092175;27;20075;-67
2021/03/26 07:40:45;;;;;;;4.63;4.15;;;;;;;;;;5091965;27;20096;-66
2021/03/26 07:43:26;;;;;;;4.28;3.88;;;;;;;;;;5090115;28;20051;-67
2021/03/26 07:46:09;;;;;;;6.20;5.13;;;;;;;;;;5094252;28;20047;-67
2021/03/26 07:48:40;;;;;;;5.95;5.30;;;;;;;;;;5094188;28;20040;-66
2021/03/26 07:51:33;;;;;;;4.68;3.63;;;;;;;;;;5092783;28;20457;-66
2021/03/26 07:53:59;;;;;;;4.43;3.85;;;;;;;;;;5091384;28;20043;-66
2021/03/26 07:56:35;;;;;;;5.88;4.63;;;;;;;;;;5093204;28;20036;-67
2021/03/26 07:59:20;;;;;;;6.00;4.88;;;;;;;;;;5095499;27;20059;-67
2021/03/26 08:01:52;;;;;;;6.90;4.35;;;;;;;;;;5105670;27;20034;-66
2021/03/26 08:04:32;;;;;;;5.38;3.85;;;;;;;;;;5104661;27;20500;-66
2021/03/26 08:07:21;;;;;;;4.30;3.90;;;;;;;;;;5103178;27;20023;-67
2021/03/26 08:09:47;;;;;;;4.50;3.67;;;;;;;;;;5103942;27;20116;-67
2021/03/26 08:12:16;;;;;;;7.25;3.90;;;;;;;;;;5101617;27;20039;-67
2021/03/26 08:15:03;;;;;;;4.30;3.90;;;;;;;;;;5104780;27;20027;-67
2021/03/26 08:17:38;;;;;;;5.63;4.20;;;;;;;;;;5106142;27;20035;-66
2021/03/26 08:20:13;;;;;;;4.63;3.80;;;;;;;;;;5104523;27;20077;-65
2021/03/26 08:22:46;;;;;;;5.40;4.20;;;;;;;;;;5103858;28;20038;-66
2021/03/26 08:25:31;;;;;;;8.07;4.13;;;;;;;;;;5111116;27;20027;-66
2021/03/26 08:28:15;;;;;;;9.52;4.55;;;;;;;;;;5088815;28;20093;-66
2021/03/26 08:30:44;;;;;;;6.45;4.25;;;;;;;;;;5089460;28;20029;-67
2021/03/26 08:33:22;;;;;;;6.25;4.72;;;;;;;;;;5088325;28;20118;-66
2021/03/26 08:35:48;;;;;;;5.05;4.30;;;;;;;;;;5107572;28;20580;-66
2021/03/26 08:38:30;;;;;;;7.55;4.15;;;;;;;;;;5108875;28;20024;-67
2021/03/26 08:40:58;;;;;;;6.35;4.25;;;;;;;;;;5109569;28;20394;-66
2021/03/26 08:43:25;;;;;;;4.68;3.60;;;;;;;;;;5107330;28;20020;-67
2021/03/26 08:46:00;;;;;;;6.97;4.65;;;;;;;;;;5109288;28;20036;-67
2021/03/26 08:48:34;;;;;;;6.05;4.50;;;;;;;;;;5103294;28;20030;-67
2021/03/26 08:51:06;;;;;;;4.85;3.65;;;;;;;;;;5103561;28;20122;-67
2021/03/26 08:53:52;;;;;;;6.88;3.83;;;;;;;;;;5103436;28;20044;-67
2021/03/26 08:56:27;;;;;;;7.97;5.07;;;;;;;;;;5100301;28;20066;-66
2021/03/26 08:59:04;;;;;;;5.97;4.35;;;;;;;;;;5101540;28;20411;-67
2021/03/26 09:01:42;;;;;;;6.53;4.85;;;;;;;;;;5098203;28;20491;-67
2021/03/26 09:04:41;;;;;;;7.57;5.20;;;;;;;;;;5096514;28;20478;-67
2021/03/26 09:07:27;;;;;;;7.45;4.05;;;;;;;;;;5052909;28;20036;-66
2021/03/26 09:10:05;;;;;;;8.32;3.95;;;;;;;;;;5097696;28;20118;-66
2021/03/26 09:12:37;;;;;;;6.13;5.05;;;;;;;;;;5098917;28;20040;-67
2021/03/26 09:15:22;;;;;;;7.07;3.72;;;;;;;;;;5097003;28;20035;-67
2021/03/26 09:18:00;;;;;;;4.95;3.78;;;;;;;;;;5098633;28;20032;-67
2021/03/26 09:20:35;;;;;;;4.40;3.92;;;;;;;;;;5095254;28;20024;-67
2021/03/26 09:23:29;;;;;;;6.30;4.05;;;;;;;;;;5097212;28;20042;-67
2021/03/26 09:25:55;;;;;;;;;;;;;;;;;;5099783;28;20074;-66
2021/03/26 09:28:28;;;;;;;4.80;4.28;;;;;;;;;;5101985;28;20461;-67
2021/03/26 09:30:57;;;;;;;4.20;3.80;;;;;;;;;;5111345;28;20023;-67
2021/03/26 09:33:23;;;;;;;3.90;2.90;;;;;;;;;;5108518;28;20110;-67
2021/03/26 09:35:53;;;;;;;8.55;4.38;;;;;;;;;;5112703;28;20030;-66
2021/03/26 09:38:28;;;;;;;4.32;3.92;;;;;;;;;;5111920;28;20035;-67
2021/03/26 09:41:04;;;;;;;4.05;3.65;;;;;;;;;;5103005;28;20035;-70
2021/03/26 09:43:33;;;;;;;8.95;4.22;;;;;;;;;;5106660;28;20257;-67
2021/03/26 09:46:00;;;;;;;3.78;3.45;;;;;;;;;;5109186;28;20027;-67
2021/03/26 09:48:32;;;;;;;6.28;4.28;;;;;;;;;;5109810;28;20027;-67
2021/03/26 09:51:13;;;;;;;4.90;3.70;;;;;;;;;;5105410;28;20046;-67
2021/03/26 09:53:40;;;;;;;9.85;4.97;;;;;;;;;;5111916;28;20028;-67
2021/03/26 09:56:16;;;;;;;5.13;4.63;;;;;;;;;;5111104;28;20035;-66
2021/03/26 09:58:58;;;;;;;4.50;3.85;;;;;;;;;;5111437;27;20031;-67
2021/03/26 10:01:29;;;;;;;4.68;3.95;;;;;;;;;;5102690;28;20027;-67
2021/03/26 10:04:18;;;;;;;4.85;4.38;;;;;;;;;;5091354;28;20098;-66
2021/03/26 10:07:14;;;;;;;4.80;3.97;;;;;;;;;;5112037;28;20027;-68
2021/03/26 10:09:50;;;;;;;7.68;5.38;;;;;;;;;;5092198;28;20118;-67
2021/03/26 10:12:26;;;;;;;8.02;4.65;;;;;;;;;;5095978;28;20047;-70
2021/03/26 10:15:04;;;;;;;5.43;4.47;;;;;;;;;;5095304;28;20116;-67
2021/03/26 10:17:40;;;;;;;7.80;4.78;;;;;;;;;;5095487;28;20029;-68
2021/03/26 10:20:27;;;;;;;4.55;4.15;;;;;;;;;;5095568;28;20092;-68
2021/03/26 10:22:53;;;;;;;6.57;5.97;;;;;;;;;;5094747;28;20468;-68
2021/03/26 10:25:23;;;;;;;3.95;3.28;;;;;;;;;;5092340;28;20463;-67
2021/03/26 10:28:12;;;;;;;7.30;3.88;;;;;;;;;;5095624;28;20092;-67
2021/03/26 10:30:42;;;;;;;8.10;4.97;;;;;;;;;;5055447;28;20044;-68
2021/03/26 10:33:10;;;;;;;6.75;4.18;;;;;;;;;;5110061;28;20031;-66
2021/03/26 10:35:38;;;;;;;6.45;4.40;;;;;;;;;;5110760;28;20055;-67
2021/03/26 10:38:13;;;;;;;6.05;4.85;;;;;;;;;;5110189;28;20050;-67
2021/03/26 10:40:49;;;;;;;5.22;4.13;;;;;;;;;;5111451;28;20530;-67
2021/03/26 10:43:28;;;;;;;6.72;5.55;;;;;;;;;;5109811;28;20146;-67
2021/03/26 10:46:04;;;;;;;5.80;4.00;;;;;;;;;;5104217;28;20590;-67
2021/03/26 10:48:33;;;;;;;3.78;3.38;;;;;;;;;;5094961;28;20405;-67
2021/03/26 10:51:18;;;;;;;4.55;4.00;;;;;;;;;;5109966;28;20057;-67
2021/03/26 10:53:52;;;;;;;5.57;5.07;;;;;;;;;;5110948;28;20455;-69
2021/03/26 10:56:33;;;;;;;7.68;5.07;;;;;;;;;;5104081;28;20507;-68
2021/03/26 10:59:03;;;;;;;6.43;4.15;;;;;;;;;;5105537;27;20048;-69
2021/03/26 11:01:35;;;;;;;5.30;4.28;;;;;;;;;;5107098;28;20027;-69
2021/03/26 11:04:03;;;;;;;4.43;4.00;;;;;;;;;;5106815;28;20054;-69
2021/03/26 11:06:38;;;;;;;5.22;4.63;;;;;;;;;;5111336;28;20063;-68
2021/03/26 11:09:19;;;;;;;4.65;4.25;;;;;;;;;;5109618;28;20050;-68
2021/03/26 11:11:59;;;;;;;4.18;3.70;;;;;;;;;;5110517;28;20390;-68
2021/03/26 11:14:37;;;;;;;7.38;4.78;;;;;;;;;;5109882;28;20032;-68
2021/03/26 11:17:17;;;;;;;7.65;4.03;;;;;;;;;;5112168;27;20040;-68
2021/03/26 11:20:02;;;;;;;5.28;4.50;;;;;;;;;;5107458;28;20106;-68
2021/03/26 11:22:28;;;;;;;6.38;4.28;;;;;;;;;;5108381;28;20152;-68
2021/03/26 11:25:03;;;;;;;4.95;4.05;;;;;;;;;;5102795;28;20494;-68
2021/03/26 11:27:32;;;;;;;5.70;3.90;;;;;;;;;;5103106;28;20453;-68
2021/03/26 11:30:21;;;;;;;5.68;4.75;;;;;;;;;;5100261;28;20020;-68
2021/03/26 11:32:50;;;;;;;6.60;4.25;;;;;;;;;;5089665;28;20044;-68
2021/03/26 11:35:18;;;;;;;7.10;4.18;;;;;;;;;;5088392;28;20043;-68
2021/03/26 11:37:48;;;;;;;4.90;4.25;;;;;;;;;;5086631;28;20048;-68
2021/03/26 11:40:14;;;;;;;12.93;4.50;;;;;;;;;;5102889;28;20537;-69
2021/03/26 11:42:43;;;;;;;9.50;4.95;;;;;;;;;;5108910;28;20054;-69
2021/03/26 11:45:24;;;;;;;9.07;4.65;;;;;;;;;;5108957;28;20038;-69
2021/03/26 11:48:17;;;;;;;7.97;4.57;;;;;;;;;;5109533;28;20106;-68
2021/03/26 11:50:52;;;;;;;6.00;4.80;;;;;;;;;;5104792;28;20031;-68
2021/03/26 11:53:36;;;;;;;5.53;4.10;;;;;;;;;;5108330;28;20047;-69
2021/03/26 11:56:02;;;;;;;7.20;4.40;;;;;;;;;;5109027;28;20047;-69
2021/03/26 11:58:48;;;;;;;5.00;4.05;;;;;;;;;;5108097;27;20422;-69
2021/03/26 12:01:17;;;;;;;5.63;4.80;;;;;;;;;;5100544;28;20043;-69
2021/03/26 12:03:49;;;;;;;6.20;4.28;;;;;;;;;;5108777;28;20027;-69
2021/03/26 12:06:24;;;;;;;7.00;5.13;;;;;;;;;;5108107;28;20042;-68
2021/03/26 12:09:00;;;;;;;5.85;5.03;;;;;;;;;;5108730;28;20031;-69
2021/03/26 12:11:41;;;;;;;7.00;6.38;;;;;;;;;;5108886;28;20092;-69
2021/03/26 12:14:28;;;;;;;6.38;5.68;;;;;;;;;;5108137;28;20549;-69
2021/03/26 12:17:03;;;;;;;6.00;5.43;;;;;;;;;;5108842;28;20035;-69
2021/03/26 12:19:34;;;;;;;9.15;6.15;;;;;;;;;;5108789;28;20485;-69
2021/03/26 12:22:13;;;;;;;10.52;5.75;;;;;;;;;;5107861;28;20034;-68
2021/03/26 12:25:03;;;;;;;8.30;4.85;;;;;;;;;;5109136;28;20027;-69
2021/03/26 12:27:29;;;;;;;8.73;5.43;;;;;;;;;;5108241;28;20067;-69
2021/03/26 12:29:58;;;;;;;5.68;5.13;;;;;;;;;;5088158;28;20032;-68
2021/03/26 12:32:28;;;;;;;6.88;4.82;;;;;;;;;;5103947;28;20114;-68
2021/03/26 12:34:57;;;;;;;5.63;5.00;;;;;;;;;;5091219;28;20081;-68
2021/03/26 12:37:43;;;;;;;5.35;4.82;;;;;;;;;;5101836;28;20026;-69
2021/03/26 12:40:32;;;;;;;4.53;3.78;;;;;;;;;;5102371;28;20028;-68
2021/03/26 12:43:04;;;;;;;6.90;4.68;;;;;;;;;;5076886;28;20111;-68
2021/03/26 12:45:56;;;;;;;4.80;4.20;;;;;;;;;;5102004;28;20023;-68
2021/03/26 12:48:24;;;;;;;4.32;3.90;;;;;;;;;;5097830;28;20043;-68
2021/03/26 12:50:53;;;;;;;5.55;5.05;;;;;;;;;;5106367;28;20027;-69
2021/03/26 12:53:34;;;;;;;5.03;4.47;;;;;;;;;;5106834;28;20036;-68
2021/03/26 12:56:03;;;;;;;9.05;5.47;;;;;;;;;;5106584;28;20027;-68
2021/03/26 12:58:29;;;;;;;8.23;5.30;;;;;;;;;;5108047;28;20130;-69
2021/03/26 13:00:55;;;;;;;9.32;5.60;;;;;;;;;;5127942;28;20439;-67
2021/03/26 13:03:36;;;;;;;5.82;5.22;;;;;;;;;;5116211;28;20492;-69
2021/03/26 13:06:11;;;;;;;4.45;4.05;;;;;;;;;;5106926;28;20031;-68
2021/03/26 13:08:39;;;;;;;5.40;4.70;;;;;;;;;;5112233;27;20080;-68
2021/03/26 13:11:25;;;;;;;5.15;4.65;;;;;;;;;;5130957;27;20060;-68
2021/03/26 13:14:12;;;;;;;4.28;3.88;;;;;;;;;;5132470;27;20039;-69
2021/03/26 13:16:41;;;;;;;7.63;5.28;;;;;;;;;;5109806;27;20490;-68
2021/03/26 13:19:14;;;;;;;4.78;4.22;;;;;;;;;;5106300;28;20024;-68
2021/03/26 13:21:42;;;;;;;4.63;4.22;;;;;;;;;;5103877;28;20020;-69
2021/03/26 13:24:11;;;;;;;5.18;4.35;;;;;;;;;;5129464;27;20026;-68
2021/03/26 13:26:39;;;;;;;6.13;4.70;;;;;;;;;;5125842;27;20105;-68
2021/03/26 13:29:20;;;;;;;6.65;6.15;;;;;;;;;;5116285;27;20035;-68
2021/03/26 13:31:46;;;;;;;9.32;5.90;;;;;;;;;;5119155;27;20441;-68
2021/03/26 13:34:15;;;;;;;5.80;4.68;;;;;;;;;;5121140;27;20054;-66
2021/03/26 13:36:53;;;;;;;7.30;5.38;;;;;;;;;;5111287;28;20395;-66
2021/03/26 13:39:32;;;;;;;5.78;4.70;;;;;;;;;;5110123;27;20092;-66
2021/03/26 13:42:03;;;;;;;4.88;4.38;;;;;;;;;;5111086;28;20020;-66
2021/03/26 13:44:38;;;;;;;6.43;5.15;;;;;;;;;;5110942;28;20058;-66
2021/03/26 13:47:07;;;;;;;6.22;5.22;;;;;;;;;;5109915;28;20478;-66
2021/03/26 13:49:33;;;;;;;8.88;5.97;;;;;;;;;;5107839;28;20473;-67
2021/03/26 13:52:09;;;;;;;14.80;5.80;;;;;;;;;;5108125;27;20031;-66
2021/03/26 13:54:41;;;;;;;6.20;5.60;;;;;;;;;;5111238;28;20417;-67
2021/03/26 13:57:17;;;;;;;6.30;5.70;;;;;;;;;;5110113;28;20035;-66
2021/03/26 13:59:47;;;;;;;6.57;5.47;;;;;;;;;;5132607;27;20559;-67
2021/03/26 14:02:22;;;;;;;7.30;6.00;;;;;;;;;;5151557;27;20030;-67
2021/03/26 14:04:57;;;;;;;9.00;5.25;;;;;;;;;;5152264;27;20404;-67
2021/03/26 14:07:26;;;;;;;7.25;5.60;;;;;;;;;;5150609;27;20102;-67
2021/03/26 14:09:56;;;;;;;6.22;5.63;;;;;;;;;;5129165;27;20102;-67
2021/03/26 14:12:27;;;;;;;6.75;5.70;;;;;;;;;;5133272;27;20130;-67
2021/03/26 14:14:58;;;;;;;7.25;5.85;;;;;;;;;;5151667;27;20030;-67
2021/03/26 14:17:41;;;;;;;8.82;6.05;;;;;;;;;;5151724;27;20069;-67
2021/03/26 14:20:07;;;;;;;6.70;6.10;;;;;;;;;;5149823;27;20023;-67
2021/03/26 14:22:47;;;;;;;5.70;4.95;;;;;;;;;;5130160;27;20485;-67
2021/03/26 14:25:18;;;;;;;5.88;5.13;;;;;;;;;;5130826;27;20038;-66
2021/03/26 14:28:00;;;;;;;5.38;4.88;;;;;;;;;;5110887;28;20062;-67
2021/03/26 14:30:36;;;;;;;6.47;5.60;;;;;;;;;;5111373;28;20028;-67
2021/03/26 14:33:16;;;;;;;8.00;5.07;;;;;;;;;;5124798;27;20039;-67
2021/03/26 14:35:45;;;;;;;7.50;5.70;;;;;;;;;;5131579;27;20110;-67
2021/03/26 14:38:29;;;;;;;6.85;6.25;;;;;;;;;;5130434;27;20038;-67
2021/03/26 14:40:55;;;;;;;;;;;;;;;;;;5131022;27;20034;-67
2021/03/26 14:43:21;;;;;;;5.78;5.28;;;;;;;;;;5149582;27;19906;-67
2021/03/26 14:45:48;;;;;;;7.13;6.43;;;;;;;;;;5111446;28;20027;-67
2021/03/26 14:48:17;;;;;;;7.45;6.35;;;;;;;;;;5117026;27;20042;-66
2021/03/26 14:50:46;;;;;;;7.53;6.82;;;;;;;;;;5131473;27;20027;-67
2021/03/26 14:53:19;;;;;;;8.05;6.10;;;;;;;;;;5119957;27;20027;-67
2021/03/26 14:56:02;;;;;;;7.47;6.63;;;;;;;;;;5145438;27;20526;-67
2021/03/26 14:58:47;;;;;;;7.15;6.55;;;;;;;;;;5129369;27;20031;-67
2021/03/26 15:01:13;;;;;;;7.70;6.55;;;;;;;;;;5102017;28;20082;-67
2021/03/26 15:03:52;;;;;;;11.43;6.45;;;;;;;;;;5096503;28;20039;-67
2021/03/26 15:06:24;;;;;;;9.40;7.38;;;;;;;;;;5101053;28;20040;-66
2021/03/26 15:09:00;;;;;;;6.32;5.47;;;;;;;;;;5091694;28;20057;-67
2021/03/26 15:11:32;;;;;;;7.75;5.15;;;;;;;;;;5110202;28;20481;-67
2021/03/26 15:14:11;;;;;;;6.30;5.68;;;;;;;;;;5109819;28;20032;-67
2021/03/26 15:16:46;;;;;;;7.70;5.55;;;;;;;;;;5110140;28;20485;-67
2021/03/26 15:19:15;;;;;;;5.93;4.97;;;;;;;;;;5088419;28;20656;-67
2021/03/26 15:21:59;;;;;;;6.68;5.93;;;;;;;;;;5089905;28;20093;-69